Time;durP1;ratioP1;P1;durP2;ratioP2;P2;SDS_P1;SDS_P2;PMS_P1;PMS_P2;Temp;Humidity;BMP_temperature;BMP_pressure;BME280_temperature;BME280_humidity;BME280_pressure;Samples;Min_cycle;Max_cycle;Signal;HPM_P1;HPM_P2
2021/11/24 00:02:24;;;;;;;26.33;14.10;;;1.40;99.30;;;;;;4978805;28;20267;-58
2021/11/24 00:04:50;;;;;;;27.70;15.90;;;1.40;99.50;;;;;;4976729;28;20474;-58
2021/11/24 00:07:15;;;;;;;24.40;14.13;;;1.40;99.30;;;;;;4976292;28;20200;-58
2021/11/24 00:09:41;;;;;;;24.67;13.00;;;1.40;99.30;;;;;;4977968;28;20246;-57
2021/11/24 00:12:07;;;;;;;21.50;13.30;;;1.40;99.30;;;;;;4978921;28;20271;-59
2021/11/24 00:14:32;;;;;;;26.80;14.73;;;1.30;99.30;;;;;;4990025;28;20176;-57
2021/11/24 00:16:58;;;;;;;27.13;15.20;;;1.30;99.70;;;;;;4988881;28;20435;-58
2021/11/24 00:19:24;;;;;;;24.80;14.57;;;1.30;99.80;;;;;;4982477;28;20187;-57
2021/11/24 00:21:49;;;;;;;26.13;14.57;;;1.30;99.90;;;;;;4985927;28;20215;-58
2021/11/24 00:24:15;;;;;;;25.10;13.93;;;1.30;99.90;;;;;;4974415;28;20176;-58
2021/11/24 00:26:41;;;;;;;26.13;14.30;;;1.30;99.90;;;;;;4976107;28;20181;-59
2021/11/24 00:29:06;;;;;;;24.57;13.83;;;1.40;99.90;;;;;;4981757;28;20184;-57
2021/11/24 00:31:32;;;;;;;29.67;15.43;;;1.40;99.90;;;;;;4985926;28;20203;-58
2021/11/24 00:34:00;;;;;;;24.40;13.80;;;1.40;99.90;;;;;;4973515;28;20255;-59
2021/11/24 00:36:26;;;;;;;29.23;15.37;;;1.40;99.90;;;;;;4987222;28;20177;-59
2021/11/24 00:38:52;;;;;;;23.43;13.87;;;1.40;99.90;;;;;;4981333;28;20561;-56
2021/11/24 00:41:18;;;;;;;24.70;13.33;;;1.40;99.90;;;;;;4990728;28;20456;-59
2021/11/24 00:43:44;;;;;;;28.10;15.37;;;1.30;99.90;;;;;;4981463;28;20304;-58
2021/11/24 00:46:10;;;;;;;27.00;14.90;;;1.40;99.90;;;;;;4985481;28;20463;-59
2021/11/24 00:48:36;;;;;;;28.63;14.60;;;1.40;99.90;;;;;;4984210;28;20491;-59
2021/11/24 00:51:02;;;;;;;30.10;15.77;;;1.40;99.90;;;;;;4989448;28;20211;-59
2021/11/24 00:53:28;;;;;;;26.93;15.33;;;1.30;99.90;;;;;;4984414;28;20424;-58
2021/11/24 00:55:54;;;;;;;25.67;15.63;;;1.30;99.90;;;;;;4986356;28;20437;-58
2021/11/24 00:58:20;;;;;;;30.40;15.63;;;1.30;99.90;;;;;;4991399;28;20177;-58
2021/11/24 01:00:46;;;;;;;28.97;14.80;;;1.40;99.90;;;;;;4988491;28;20179;-58
2021/11/24 01:03:12;;;;;;;27.33;15.40;;;1.40;99.90;;;;;;4993587;28;20254;-58
2021/11/24 01:05:38;;;;;;;30.40;15.10;;;1.40;99.90;;;;;;4985324;28;21086;-58
2021/11/24 01:08:04;;;;;;;30.60;15.63;;;1.40;99.80;;;;;;4986821;28;20459;-58
2021/11/24 01:10:30;;;;;;;27.73;15.20;;;1.40;99.90;;;;;;4984366;28;20598;-57
2021/11/24 01:12:56;;;;;;;30.97;15.60;;;1.30;99.90;;;;;;4982334;28;20193;-58
2021/11/24 01:15:22;;;;;;;30.17;16.50;;;1.30;99.90;;;;;;4983291;28;20447;-58
2021/11/24 01:17:48;;;;;;;24.20;14.93;;;1.30;99.90;;;;;;4984075;28;21086;-58
2021/11/24 01:20:14;;;;;;;33.07;16.40;;;1.30;99.90;;;;;;4981500;28;20470;-56
2021/11/24 01:22:41;;;;;;;28.23;15.17;;;1.30;99.90;;;;;;4987001;28;20207;-58
2021/11/24 01:25:07;;;;;;;26.67;14.03;;;1.30;99.90;;;;;;4982047;28;21108;-57
2021/11/24 01:27:33;;;;;;;26.63;15.57;;;1.30;99.90;;;;;;4981973;28;20561;-59
2021/11/24 01:29:59;;;;;;;27.30;15.23;;;1.40;99.90;;;;;;4983620;28;20573;-59
2021/11/24 01:32:24;;;;;;;27.93;14.60;;;1.40;99.90;;;;;;4978661;28;20286;-59
2021/11/24 01:34:50;;;;;;;26.53;15.33;;;1.40;99.90;;;;;;4982986;28;20643;-60
2021/11/24 01:37:16;;;;;;;26.83;15.30;;;1.40;99.90;;;;;;4979300;28;20183;-59
2021/11/24 01:39:41;;;;;;;27.37;14.90;;;1.40;99.90;;;;;;4980766;28;20238;-59
2021/11/24 01:42:07;;;;;;;29.13;15.43;;;1.40;99.90;;;;;;4984533;28;20200;-59
2021/11/24 01:44:33;;;;;;;25.70;13.97;;;1.50;99.90;;;;;;4989116;28;20191;-59
2021/11/24 01:47:01;;;;;;;26.40;15.10;;;1.50;99.90;;;;;;4983366;28;20301;-58
2021/11/24 01:49:29;;;;;;;27.37;14.50;;;1.40;99.80;;;;;;4978341;28;20183;-58
2021/11/24 01:51:56;;;;;;;29.73;14.90;;;1.40;99.90;;;;;;4980663;28;20473;-62
2021/11/24 01:54:23;;;;;;;25.70;14.73;;;1.40;99.90;;;;;;4977589;28;20428;-59
2021/11/24 01:56:49;;;;;;;25.30;13.93;;;1.40;99.90;;;;;;4981521;28;20441;-57
2021/11/24 01:59:15;;;;;;;28.63;15.17;;;1.40;99.60;;;;;;4981499;28;20430;-60
2021/11/24 02:01:43;;;;;;;29.30;15.40;;;1.40;99.40;;;;;;4991401;28;20959;-58
2021/11/24 02:04:09;;;;;;;27.13;15.63;;;1.40;99.30;;;;;;4983977;28;20437;-59
2021/11/24 02:06:35;;;;;;;28.63;15.20;;;1.40;99.20;;;;;;4980007;28;20464;-58
2021/11/24 02:09:02;;;;;;;27.47;14.93;;;1.40;99.30;;;;;;4979330;28;20443;-59
2021/11/24 02:11:28;;;;;;;26.13;14.80;;;1.40;99.60;;;;;;4980616;28;20502;-58
2021/11/24 02:13:53;;;;;;;29.73;16.27;;;1.40;99.60;;;;;;4980575;28;20903;-57
2021/11/24 02:16:22;;;;;;;28.00;16.30;;;1.40;99.60;;;;;;4984285;28;20183;-56
2021/11/24 02:18:48;;;;;;;28.20;14.43;;;1.40;99.30;;;;;;4978234;28;20191;-59
2021/11/24 02:21:13;;;;;;;29.27;15.57;;;1.40;99.10;;;;;;4981055;28;20469;-58
2021/11/24 02:23:39;;;;;;;30.63;16.03;;;1.30;99.00;;;;;;4980413;28;20179;-59
2021/11/24 02:26:05;;;;;;;31.53;16.00;;;1.30;99.40;;;;;;4977452;28;20252;-59
2021/11/24 02:28:33;;;;;;;30.30;15.97;;;1.30;99.40;;;;;;4978896;28;20695;-59
2021/11/24 02:30:59;;;;;;;30.57;16.20;;;1.30;99.40;;;;;;4974797;28;20203;-59
2021/11/24 02:33:28;;;;;;;28.30;15.83;;;1.30;99.60;;;;;;4984247;28;20953;-59
2021/11/24 02:35:54;;;;;;;33.70;18.00;;;1.30;99.30;;;;;;4980386;28;20771;-59
2021/11/24 02:38:20;;;;;;;31.20;16.43;;;1.30;99.50;;;;;;4982693;28;20427;-59
2021/11/24 02:40:45;;;;;;;29.43;16.43;;;1.30;99.40;;;;;;4976386;28;20187;-60
2021/11/24 02:43:11;;;;;;;33.50;17.87;;;1.30;99.70;;;;;;4987675;28;20180;-59
2021/11/24 02:45:37;;;;;;;29.87;16.53;;;1.30;99.90;;;;;;4982965;28;20258;-59
2021/11/24 02:48:05;;;;;;;34.47;16.30;;;1.30;99.90;;;;;;4981412;28;20234;-59
2021/11/24 02:50:31;;;;;;;30.23;15.60;;;1.30;99.80;;;;;;4983374;28;20541;-58
2021/11/24 02:52:57;;;;;;;32.47;16.70;;;1.30;99.80;;;;;;4987286;28;20863;-59
2021/11/24 02:55:23;;;;;;;28.00;15.83;;;1.30;99.90;;;;;;4983360;28;20451;-58
2021/11/24 02:57:52;;;;;;;30.40;16.87;;;1.30;99.70;;;;;;4975254;28;21868;-58
2021/11/24 03:00:27;;;;;;;29.67;15.77;;;1.30;99.90;;;;;;4980834;28;20438;-59
2021/11/24 03:02:53;;;;;;;28.63;14.73;;;1.30;99.90;;;;;;4978614;28;20462;-59
2021/11/24 03:05:26;;;;;;;30.93;16.03;;;1.30;99.90;;;;;;4992808;28;20944;-59
2021/11/24 03:07:52;;;;;;;34.90;16.30;;;1.30;99.90;;;;;;4976651;28;20629;-59
2021/11/24 03:10:18;;;;;;;32.90;16.20;;;1.30;99.90;;;;;;4980517;28;20979;-59
2021/11/24 03:12:47;;;;;;;30.27;16.60;;;1.30;99.80;;;;;;4984566;28;20470;-59
2021/11/24 03:15:12;;;;;;;32.60;16.80;;;1.40;99.90;;;;;;4981932;28;22706;-60
2021/11/24 03:17:39;;;;;;;30.20;16.80;;;1.40;99.90;;;;;;4984306;28;20581;-59
2021/11/24 03:20:06;;;;;;;29.50;15.63;;;1.40;99.70;;;;;;4979906;28;20183;-59
2021/11/24 03:22:32;;;;;;;26.27;14.77;;;1.40;99.60;;;;;;4982628;28;20474;-59
2021/11/24 03:24:59;;;;;;;30.50;15.20;;;1.40;99.60;;;;;;4980680;28;20435;-58
2021/11/24 03:27:31;;;;;;;25.87;14.37;;;1.40;99.40;;;;;;4976357;28;20205;-59
2021/11/24 03:29:59;;;;;;;29.20;16.10;;;1.40;99.50;;;;;;4976808;28;20431;-58
2021/11/24 03:32:26;;;;;;;29.73;15.50;;;1.40;99.40;;;;;;4979166;28;20463;-60
2021/11/24 03:34:51;;;;;;;29.30;14.37;;;1.40;99.70;;;;;;4976664;28;20976;-59
2021/11/24 03:37:18;;;;;;;26.80;15.47;;;1.40;99.80;;;;;;4979431;28;20470;-59
2021/11/24 03:39:44;;;;;;;28.07;14.30;;;1.40;99.90;;;;;;4981298;28;20185;-58
2021/11/24 03:42:10;;;;;;;26.30;14.53;;;1.40;99.90;;;;;;4975848;28;20460;-58
2021/11/24 03:44:36;;;;;;;26.77;14.30;;;1.40;99.90;;;;;;4974939;28;20437;-59
2021/11/24 03:47:02;;;;;;;28.77;16.97;;;1.40;99.90;;;;;;4989596;28;20843;-60
2021/11/24 03:49:27;;;;;;;30.30;15.87;;;1.40;99.90;;;;;;4980472;28;20181;-59
2021/11/24 03:51:53;;;;;;;28.67;15.40;;;1.40;99.90;;;;;;4979000;28;20459;-59
2021/11/24 03:54:19;;;;;;;30.27;16.13;;;1.40;99.90;;;;;;4985874;28;20181;-59
2021/11/24 03:56:44;;;;;;;30.17;15.90;;;1.40;99.90;;;;;;4978946;28;20179;-59
2021/11/24 03:59:10;;;;;;;24.43;13.70;;;1.40;99.90;;;;;;4977626;28;20699;-58
2021/11/24 04:01:38;;;;;;;27.60;14.60;;;1.30;99.90;;;;;;4980378;28;20192;-59
2021/11/24 04:04:04;;;;;;;31.17;15.57;;;1.40;99.90;;;;;;4982963;28;20179;-59
2021/11/24 04:06:31;;;;;;;29.57;16.07;;;1.40;99.90;;;;;;4981909;28;20438;-58
2021/11/24 04:08:57;;;;;;;30.40;16.40;;;1.40;99.90;;;;;;4978767;28;20733;-61
2021/11/24 04:11:23;;;;;;;32.67;15.97;;;1.40;99.90;;;;;;4979584;28;20458;-57
2021/11/24 04:13:48;;;;;;;32.23;16.30;;;1.40;99.90;;;;;;4978077;28;20179;-59
2021/11/24 04:16:14;;;;;;;30.77;15.90;;;1.40;99.90;;;;;;4981866;28;20176;-58
2021/11/24 04:18:40;;;;;;;36.63;18.50;;;1.40;99.90;;;;;;4984056;28;20183;-59
2021/11/24 04:21:05;;;;;;;35.23;17.10;;;1.40;99.90;;;;;;4981879;28;20199;-58
2021/11/24 04:23:31;;;;;;;30.17;16.93;;;1.40;99.80;;;;;;4977899;28;20574;-59
2021/11/24 04:25:57;;;;;;;35.73;16.20;;;1.40;99.90;;;;;;4983195;28;20186;-59
2021/11/24 04:28:23;;;;;;;29.57;16.07;;;1.40;99.90;;;;;;4987071;28;20198;-59
2021/11/24 04:30:48;;;;;;;37.03;17.10;;;1.40;99.90;;;;;;4982061;28;20949;-59
2021/11/24 04:33:14;;;;;;;27.87;15.40;;;1.40;99.90;;;;;;4980619;28;20206;-58
2021/11/24 04:35:40;;;;;;;26.70;14.57;;;1.40;99.90;;;;;;4981682;28;20450;-59
2021/11/24 04:38:06;;;;;;;29.03;16.53;;;1.40;99.90;;;;;;4985172;28;20435;-60
2021/11/24 04:40:32;;;;;;;29.40;16.70;;;1.40;99.90;;;;;;5001207;28;20186;-59
2021/11/24 04:43:01;;;;;;;37.43;17.63;;;1.40;99.90;;;;;;4978049;28;20991;-60
2021/11/24 04:45:27;;;;;;;31.40;17.03;;;1.40;99.90;;;;;;4983634;28;20194;-58
2021/11/24 04:47:53;;;;;;;36.80;16.43;;;1.40;99.90;;;;;;4982794;28;20554;-59
2021/11/24 04:50:19;;;;;;;32.13;17.47;;;1.40;99.90;;;;;;4987873;28;20183;-59
2021/11/24 04:52:46;;;;;;;32.13;15.57;;;1.40;99.90;;;;;;4980652;28;20219;-59
2021/11/24 04:55:12;;;;;;;34.10;17.60;;;1.40;99.90;;;;;;4987020;28;20477;-60
2021/11/24 04:57:38;;;;;;;31.53;17.10;;;1.40;99.90;;;;;;4993168;28;20973;-59
2021/11/24 05:00:07;;;;;;;28.70;16.47;;;1.40;99.90;;;;;;4987430;28;20445;-60
2021/11/24 05:02:33;;;;;;;33.20;17.40;;;1.40;99.90;;;;;;4977004;28;21082;-58
2021/11/24 05:04:58;;;;;;;28.60;16.70;;;1.40;99.90;;;;;;4978825;28;20449;-59
2021/11/24 05:07:24;;;;;;;34.13;16.30;;;1.40;99.90;;;;;;4982933;28;20214;-59
2021/11/24 05:09:50;;;;;;;33.47;16.60;;;1.40;99.90;;;;;;4978387;28;20184;-59
2021/11/24 05:12:15;;;;;;;35.17;17.07;;;1.50;99.90;;;;;;4977997;28;20286;-58
2021/11/24 05:14:42;;;;;;;29.30;15.50;;;1.40;99.90;;;;;;4979092;28;20183;-57
2021/11/24 05:17:10;;;;;;;30.70;15.60;;;1.50;99.90;;;;;;4978270;28;20179;-57
2021/11/24 05:19:38;;;;;;;27.63;15.70;;;1.50;99.90;;;;;;4987891;28;20934;-59
2021/11/24 05:22:05;;;;;;;30.37;15.97;;;1.50;99.90;;;;;;4982021;28;20963;-59
2021/11/24 05:24:30;;;;;;;29.93;16.07;;;1.60;99.90;;;;;;4983055;28;20435;-57
2021/11/24 05:26:56;;;;;;;32.20;16.80;;;1.70;99.90;;;;;;4981672;28;20453;-60
2021/11/24 05:29:22;;;;;;;29.43;16.10;;;1.70;99.90;;;;;;4974289;28;20179;-61
2021/11/24 05:31:48;;;;;;;31.07;16.93;;;1.80;99.90;;;;;;4968868;28;20208;-60
2021/11/24 05:34:15;;;;;;;29.83;16.13;;;1.80;99.90;;;;;;4976567;28;20456;-60
2021/11/24 05:36:41;;;;;;;30.00;15.97;;;1.80;99.70;;;;;;4982406;28;20689;-57
2021/11/24 05:39:09;;;;;;;30.77;15.53;;;1.80;99.70;;;;;;4977242;28;20435;-60
2021/11/24 05:41:38;;;;;;;31.50;15.50;;;1.80;99.60;;;;;;4977031;28;20225;-59
2021/11/24 05:44:16;;;;;;;28.50;16.23;;;1.80;99.60;;;;;;4981158;28;20429;-60
2021/11/24 05:46:51;;;;;;;23.03;13.80;;;1.80;99.70;;;;;;4974637;28;21152;-60
2021/11/24 05:49:17;;;;;;;27.40;15.27;;;1.80;99.60;;;;;;4982670;28;20430;-60
2021/11/24 05:51:42;;;;;;;32.90;17.13;;;1.80;99.30;;;;;;4988417;28;20967;-60
2021/11/24 05:54:08;;;;;;;30.90;15.77;;;1.80;99.30;;;;;;4984626;28;20434;-58
2021/11/24 05:56:37;;;;;;;35.87;17.60;;;1.70;99.30;;;;;;4985037;28;20177;-61
2021/11/24 05:59:04;;;;;;;32.73;15.87;;;1.70;99.40;;;;;;4984289;28;20438;-59
2021/11/24 06:01:30;;;;;;;29.40;15.83;;;1.70;99.30;;;;;;4981986;28;20509;-58
2021/11/24 06:03:55;;;;;;;32.23;15.73;;;1.70;99.60;;;;;;4980900;28;20514;-58
2021/11/24 06:06:21;;;;;;;31.93;15.80;;;1.70;99.70;;;;;;4982387;28;20437;-60
2021/11/24 06:08:47;;;;;;;36.03;16.77;;;1.70;99.70;;;;;;4973634;28;20262;-59
2021/11/24 06:11:12;;;;;;;33.40;14.10;;;1.70;99.60;;;;;;4982609;28;20200;-60
2021/11/24 06:13:38;;;;;;;30.13;15.80;;;1.70;99.60;;;;;;4974409;28;20275;-60
2021/11/24 06:16:04;;;;;;;27.27;13.97;;;1.70;99.60;;;;;;4980867;28;20535;-59
2021/11/24 06:18:30;;;;;;;29.67;15.40;;;1.70;99.40;;;;;;4991457;28;20179;-59
2021/11/24 06:20:55;;;;;;;25.43;14.50;;;1.70;99.60;;;;;;4990372;28;20449;-59
2021/11/24 06:23:21;;;;;;;29.30;15.53;;;1.70;99.60;;;;;;4991350;28;20179;-60
2021/11/24 06:25:46;;;;;;;32.37;16.17;;;1.70;99.80;;;;;;4992029;28;20168;-59
2021/11/24 06:28:12;;;;;;;36.47;16.03;;;1.70;99.70;;;;;;4991965;28;20283;-59
2021/11/24 06:30:38;;;;;;;27.37;14.90;;;1.70;99.60;;;;;;4990968;28;20262;-60
2021/11/24 06:33:04;;;;;;;25.70;14.70;;;1.70;99.90;;;;;;4982719;28;20193;-57
2021/11/24 06:35:30;;;;;;;31.73;15.27;;;1.70;99.90;;;;;;4982245;28;20437;-60
2021/11/24 06:37:56;;;;;;;35.17;16.63;;;1.70;99.70;;;;;;4990112;28;20177;-60
2021/11/24 06:40:22;;;;;;;30.00;15.87;;;1.70;99.80;;;;;;4991323;28;20167;-59
2021/11/24 06:42:48;;;;;;;28.00;15.20;;;1.70;99.90;;;;;;4991601;28;20514;-58
2021/11/24 06:45:15;;;;;;;28.30;14.50;;;1.70;99.70;;;;;;4989253;28;20530;-60
2021/11/24 06:47:41;;;;;;;29.37;15.40;;;1.70;99.90;;;;;;4991576;28;20445;-59
2021/11/24 06:50:09;;;;;;;26.90;14.13;;;1.70;99.90;;;;;;4985631;28;20518;-60
2021/11/24 06:52:35;;;;;;;29.10;14.80;;;1.80;99.90;;;;;;4989577;28;20462;-60
2021/11/24 06:55:02;;;;;;;28.23;15.90;;;1.70;99.90;;;;;;4990691;28;20428;-59
2021/11/24 06:57:27;;;;;;;29.03;14.33;;;1.80;99.90;;;;;;4990847;28;20436;-60
2021/11/24 06:59:53;;;;;;;31.40;15.87;;;1.80;99.90;;;;;;4991262;28;20449;-58
2021/11/24 07:02:18;;;;;;;32.43;16.47;;;1.80;99.90;;;;;;4990980;28;20195;-61
2021/11/24 07:04:44;;;;;;;28.47;16.07;;;1.80;99.90;;;;;;4991003;28;20230;-58
2021/11/24 07:07:10;;;;;;;27.97;14.33;;;1.80;99.90;;;;;;4977855;28;20200;-60
2021/11/24 07:09:36;;;;;;;28.60;14.60;;;1.80;99.90;;;;;;4971394;28;20207;-59
2021/11/24 07:12:02;;;;;;;25.07;14.13;;;1.80;99.90;;;;;;4971246;28;20543;-60
2021/11/24 07:14:27;;;;;;;26.70;13.90;;;1.80;99.90;;;;;;4986054;28;20176;-59
2021/11/24 07:16:53;;;;;;;36.53;16.13;;;1.80;99.90;;;;;;4977612;28;20172;-60
2021/11/24 07:19:22;;;;;;;29.60;15.40;;;1.80;99.90;;;;;;4990867;28;20160;-59
2021/11/24 07:21:48;;;;;;;30.90;15.77;;;1.80;99.90;;;;;;4977931;28;20256;-59
2021/11/24 07:24:16;;;;;;;27.17;14.30;;;1.80;99.90;;;;;;4971238;28;20435;-60
2021/11/24 07:26:42;;;;;;;26.50;14.17;;;1.80;99.90;;;;;;4976853;28;20502;-60
2021/11/24 07:29:08;;;;;;;24.43;13.37;;;1.80;99.90;;;;;;4988209;28;20455;-60
2021/11/24 07:31:34;;;;;;;26.97;14.37;;;1.80;99.90;;;;;;4990553;28;20430;-60
2021/11/24 07:33:59;;;;;;;23.60;13.13;;;1.80;99.90;;;;;;4989353;28;20439;-60
2021/11/24 07:36:25;;;;;;;27.83;14.37;;;1.90;99.90;;;;;;4989826;28;20256;-58
2021/11/24 07:38:51;;;;;;;27.30;13.80;;;1.90;99.90;;;;;;4990935;28;20185;-59
2021/11/24 07:41:16;;;;;;;27.70;14.53;;;1.90;99.90;;;;;;4984684;28;20551;-58
2021/11/24 07:43:42;;;;;;;27.33;14.40;;;1.90;99.90;;;;;;4989310;28;20573;-60
2021/11/24 07:46:08;;;;;;;23.17;13.03;;;1.90;99.90;;;;;;4991015;28;20181;-59
2021/11/24 07:48:34;;;;;;;26.30;13.60;;;2.00;99.90;;;;;;4989165;28;20686;-59
2021/11/24 07:50:59;;;;;;;27.90;12.50;;;2.00;99.90;;;;;;4989477;28;20181;-56
2021/11/24 07:53:25;;;;;;;26.77;14.23;;;2.00;99.90;;;;;;4990729;28;20160;-60
2021/11/24 07:55:50;;;;;;;27.00;13.30;;;2.00;99.90;;;;;;4990003;28;20174;-60
2021/11/24 07:58:18;;;;;;;25.30;13.83;;;2.00;99.90;;;;;;4977066;28;20195;-59
2021/11/24 08:00:44;;;;;;;23.70;12.80;;;2.00;99.90;;;;;;4988811;28;20188;-60
2021/11/24 08:03:10;;;;;;;23.30;12.70;;;2.00;99.90;;;;;;4989359;28;20463;-59
2021/11/24 08:05:35;;;;;;;26.93;14.03;;;2.00;99.90;;;;;;4989608;28;20180;-59
2021/11/24 08:08:01;;;;;;;30.63;14.80;;;2.00;99.90;;;;;;4989843;28;20290;-59
2021/11/24 08:10:27;;;;;;;28.40;13.60;;;2.00;99.90;;;;;;4989373;28;20168;-59
2021/11/24 08:12:53;;;;;;;23.07;12.90;;;2.00;99.90;;;;;;4990329;28;20203;-59
2021/11/24 08:15:19;;;;;;;28.50;14.40;;;2.00;99.90;;;;;;4976396;28;20315;-60
2021/11/24 08:17:45;;;;;;;24.13;13.60;;;2.00;99.90;;;;;;4985629;28;20462;-59
2021/11/24 08:20:11;;;;;;;30.03;13.20;;;2.00;99.90;;;;;;4974368;28;20419;-60
2021/11/24 08:22:37;;;;;;;27.13;14.80;;;2.00;99.90;;;;;;4985983;28;20205;-59
2021/11/24 08:25:03;;;;;;;28.93;14.93;;;2.00;99.90;;;;;;4977006;28;20443;-61
2021/11/24 08:27:29;;;;;;;25.97;13.00;;;2.00;99.90;;;;;;4989218;28;20461;-60
2021/11/24 08:29:55;;;;;;;25.63;13.57;;;2.10;99.90;;;;;;4989771;28;20411;-59
2021/11/24 08:32:20;;;;;;;29.10;15.30;;;2.10;99.90;;;;;;4978418;28;20207;-59
2021/11/24 08:34:46;;;;;;;26.10;14.10;;;2.10;99.90;;;;;;4986239;28;20192;-61
2021/11/24 08:37:12;;;;;;;31.07;15.10;;;2.10;99.90;;;;;;4984615;28;20377;-58
2021/11/24 08:39:38;;;;;;;23.17;13.60;;;2.10;99.90;;;;;;4989879;28;20530;-59
2021/11/24 08:42:04;;;;;;;29.47;15.53;;;2.10;99.90;;;;;;4989361;28;20252;-57
2021/11/24 08:44:30;;;;;;;30.60;14.67;;;2.10;99.90;;;;;;4989741;28;20299;-60
2021/11/24 08:46:56;;;;;;;26.87;13.27;;;2.10;99.90;;;;;;4990031;28;20570;-59
2021/11/24 08:49:22;;;;;;;24.83;13.77;;;2.10;99.90;;;;;;4973857;28;20180;-60
2021/11/24 08:51:47;;;;;;;24.83;13.73;;;2.00;99.90;;;;;;4983410;28;20220;-59
2021/11/24 08:54:14;;;;;;;25.97;13.90;;;2.00;99.90;;;;;;4989980;28;20173;-60
2021/11/24 08:56:42;;;;;;;26.20;13.43;;;2.00;99.90;;;;;;4989731;28;20169;-60
2021/11/24 08:59:08;;;;;;;26.70;13.27;;;2.00;99.90;;;;;;4990146;28;20454;-60
2021/11/24 09:01:36;;;;;;;24.37;13.60;;;2.00;99.90;;;;;;4986515;28;20445;-60
2021/11/24 09:04:03;;;;;;;29.60;14.20;;;2.00;99.90;;;;;;4974137;28;20412;-59
2021/11/24 09:06:29;;;;;;;27.53;14.97;;;1.90;99.90;;;;;;4986419;28;20447;-59
2021/11/24 09:08:55;;;;;;;24.77;13.33;;;1.90;99.90;;;;;;4995381;28;20849;-60
2021/11/24 09:11:21;;;;;;;27.20;14.37;;;1.90;99.90;;;;;;5004002;28;20439;-58
2021/11/24 09:13:48;;;;;;;26.40;14.27;;;1.90;99.90;;;;;;5005495;28;20426;-58
2021/11/24 09:16:14;;;;;;;26.13;14.50;;;1.90;99.90;;;;;;4976835;28;20421;-58
2021/11/24 09:18:40;;;;;;;26.07;14.53;;;1.90;99.90;;;;;;4973645;28;20994;-59
2021/11/24 09:21:06;;;;;;;32.90;15.33;;;1.90;99.90;;;;;;4973602;28;20197;-59
2021/11/24 09:23:32;;;;;;;31.53;15.77;;;2.00;99.90;;;;;;4988116;28;20436;-59
2021/11/24 09:26:15;;;;;;;29.63;15.40;;;2.00;99.90;;;;;;4993129;28;20861;-60
2021/11/24 09:28:42;;;;;;;30.90;15.93;;;2.00;99.90;;;;;;4974151;28;20457;-59
2021/11/24 09:31:08;;;;;;;32.00;16.07;;;2.00;99.90;;;;;;4980312;28;20526;-59
2021/11/24 09:33:34;;;;;;;32.10;15.47;;;1.90;99.90;;;;;;4992701;28;20438;-59
2021/11/24 09:36:02;;;;;;;32.97;16.40;;;1.90;99.90;;;;;;4979282;28;20452;-59
2021/11/24 09:38:28;;;;;;;31.60;15.47;;;1.90;99.90;;;;;;4985672;28;20429;-59
2021/11/24 09:40:55;;;;;;;29.53;14.67;;;1.90;99.90;;;;;;4974101;28;20478;-60
2021/11/24 09:43:25;;;;;;;29.07;13.67;;;2.00;99.90;;;;;;4986700;28;20455;-60
2021/11/24 09:45:51;;;;;;;29.87;15.37;;;1.90;99.90;;;;;;4992722;28;20430;-59
2021/11/24 09:48:19;;;;;;;31.03;15.23;;;1.90;99.90;;;;;;4992497;28;20521;-59
2021/11/24 09:50:48;;;;;;;33.20;17.17;;;1.90;99.80;;;;;;4991457;28;20442;-59
2021/11/24 09:53:15;;;;;;;31.67;15.63;;;1.90;99.90;;;;;;4989051;28;20436;-59
2021/11/24 09:55:41;;;;;;;30.63;15.83;;;1.90;99.90;;;;;;4973918;28;20540;-60
2021/11/24 09:58:09;;;;;;;31.43;15.80;;;1.90;99.90;;;;;;4992017;28;21081;-56
2021/11/24 10:00:36;;;;;;;34.60;16.27;;;1.90;99.90;;;;;;4990971;28;20274;-57
2021/11/24 10:03:03;;;;;;;33.57;16.43;;;1.90;99.90;;;;;;4987812;28;20451;-59
2021/11/24 10:05:31;;;;;;;33.30;16.13;;;2.00;99.90;;;;;;4972008;28;20440;-59
2021/11/24 10:07:56;;;;;;;33.50;15.20;;;2.00;99.90;;;;;;4972362;28;20463;-58
2021/11/24 10:10:23;;;;;;;33.97;14.87;;;2.00;99.80;;;;;;4990700;28;20442;-60
2021/11/24 10:12:49;;;;;;;29.13;14.17;;;2.00;99.30;;;;;;4990651;28;20217;-58
2021/11/24 10:15:38;;;;;;;34.50;16.30;;;2.00;99.20;;;;;;4973430;28;20412;-57
2021/11/24 10:18:10;;;;;;;30.63;15.40;;;2.00;99.90;;;;;;4981256;28;20400;-60
2021/11/24 10:20:54;;;;;;;28.73;14.93;;;1.90;99.90;;;;;;4981248;28;20934;-58
2021/11/24 10:23:41;;;;;;;32.60;15.50;;;2.00;99.90;;;;;;4992692;28;20441;-58
2021/11/24 10:26:17;;;;;;;36.80;16.60;;;2.00;99.90;;;;;;4975143;28;20876;-59
2021/11/24 10:28:51;;;;;;;31.27;15.23;;;2.00;99.90;;;;;;4991052;28;20504;-59
2021/11/24 10:31:35;;;;;;;29.30;14.37;;;2.00;99.90;;;;;;4991878;28;20458;-58
2021/11/24 10:34:22;;;;;;;33.20;14.77;;;2.00;99.90;;;;;;4989496;28;20458;-59
2021/11/24 10:37:01;;;;;;;30.67;15.30;;;2.00;99.90;;;;;;4990927;28;20597;-60
2021/11/24 10:39:29;;;;;;;29.83;14.40;;;2.00;99.90;;;;;;4987989;28;20428;-59
2021/11/24 10:42:03;;;;;;;33.60;15.27;;;1.90;99.90;;;;;;4991068;28;20956;-59
2021/11/24 10:44:30;;;;;;;30.90;16.03;;;2.00;99.90;;;;;;4991976;28;20411;-59
2021/11/24 10:46:58;;;;;;;29.03;15.30;;;2.00;99.90;;;;;;4981382;28;20459;-58
2021/11/24 10:50:00;;;;;;;32.83;15.80;;;1.90;99.90;;;;;;4990340;28;20480;-58
2021/11/24 10:52:36;;;;;;;35.67;15.87;;;1.90;99.90;;;;;;4968367;28;20844;-57
2021/11/24 10:55:06;;;;;;;30.43;15.13;;;1.90;99.90;;;;;;4976148;28;20436;-60
2021/11/24 10:57:35;;;;;;;32.07;15.10;;;1.80;99.90;;;;;;4984063;28;20827;-59
2021/11/24 11:00:22;;;;;;;32.77;14.07;;;1.90;99.90;;;;;;4990978;28;20490;-59
2021/11/24 11:02:49;;;;;;;32.30;15.27;;;1.90;99.90;;;;;;4990632;28;20995;-58
2021/11/24 11:05:24;;;;;;;29.10;14.97;;;1.80;99.90;;;;;;4990570;28;20405;-58
2021/11/24 11:07:50;;;;;;;33.87;15.20;;;1.80;99.90;;;;;;4990766;28;21112;-60
2021/11/24 11:10:22;;;;;;;30.10;14.80;;;1.90;99.90;;;;;;4981716;28;20428;-59
2021/11/24 11:13:00;;;;;;;28.97;14.10;;;1.90;99.90;;;;;;4991560;28;20196;-58
2021/11/24 11:15:40;;;;;;;30.17;15.00;;;1.90;99.90;;;;;;4986013;28;20426;-56
2021/11/24 11:18:08;;;;;;;32.80;15.40;;;1.90;99.90;;;;;;4986662;28;20799;-59
2021/11/24 11:20:35;;;;;;;30.80;15.27;;;1.90;99.90;;;;;;4981907;28;20439;-59
2021/11/24 11:23:19;;;;;;;28.03;14.37;;;2.00;99.90;;;;;;4988170;28;20506;-58
2021/11/24 11:26:09;;;;;;;26.90;13.67;;;1.90;99.90;;;;;;4982156;28;20516;-58
2021/11/24 11:28:40;;;;;;;32.60;16.00;;;2.00;99.90;;;;;;4970967;28;20471;-59
2021/11/24 11:31:08;;;;;;;26.40;14.30;;;2.00;99.90;;;;;;4975558;28;20440;-57
2021/11/24 11:33:44;;;;;;;29.63;15.23;;;2.00;99.90;;;;;;4988180;28;20418;-59
2021/11/24 11:36:11;;;;;;;27.97;14.20;;;2.00;99.90;;;;;;4979232;28;20435;-58
2021/11/24 11:38:48;;;;;;;33.40;15.60;;;2.00;99.90;;;;;;4979340;28;20419;-56
2021/11/24 11:41:17;;;;;;;25.30;13.53;;;2.00;99.90;;;;;;4988787;28;20439;-58
2021/11/24 11:43:47;;;;;;;30.13;14.67;;;2.00;99.90;;;;;;4986345;28;20430;-58
2021/11/24 11:46:23;;;;;;;29.77;14.80;;;2.00;99.90;;;;;;4983902;28;20434;-57
2021/11/24 11:48:51;;;;;;;32.37;14.53;;;2.00;99.90;;;;;;4988307;28;20451;-58
2021/11/24 11:51:32;;;;;;;31.33;15.90;;;2.10;99.90;;;;;;4983518;28;20453;-59
2021/11/24 11:53:59;;;;;;;30.67;14.57;;;2.10;99.90;;;;;;4979099;28;20429;-59
2021/11/24 11:56:30;;;;;;;33.17;15.60;;;2.10;99.90;;;;;;4979256;28;20511;-60
2021/11/24 11:59:22;;;;;;;28.33;14.07;;;2.10;99.90;;;;;;4989311;28;20511;-57
2021/11/24 12:01:49;;;;;;;29.40;14.73;;;2.10;99.90;;;;;;4975756;28;20461;-59
2021/11/24 12:04:19;;;;;;;30.43;15.30;;;2.10;99.90;;;;;;4971062;28;21090;-60
2021/11/24 12:07:03;;;;;;;32.90;15.10;;;2.00;99.90;;;;;;4978609;28;20929;-60
2021/11/24 12:09:31;;;;;;;32.50;15.13;;;2.00;99.90;;;;;;4971952;28;20504;-58
2021/11/24 12:14:54;;;;;;;28.50;14.77;;;2.00;99.90;;;;;;4986096;28;20400;-58
2021/11/24 12:17:30;;;;;;;31.70;15.83;;;2.00;99.90;;;;;;4982631;28;20969;-59
2021/11/24 12:20:10;;;;;;;34.67;16.97;;;2.00;99.70;;;;;;4980660;28;20505;-60
2021/11/24 12:25:20;;;;;;;27.80;13.37;;;1.90;99.90;;;;;;4987205;28;20432;-59
2021/11/24 12:27:54;;;;;;;29.00;15.70;;;1.90;99.90;;;;;;4981464;28;21153;-59
2021/11/24 12:33:05;;;;;;;36.47;15.90;;;1.80;99.90;;;;;;4979601;28;20441;-59
2021/11/24 12:35:33;;;;;;;37.50;16.63;;;1.90;99.90;;;;;;4979771;28;20497;-60
2021/11/24 12:38:00;;;;;;;37.37;16.47;;;1.90;99.90;;;;;;4980529;28;20798;-58
2021/11/24 12:40:31;;;;;;;33.47;16.33;;;1.90;99.90;;;;;;4975463;28;20560;-60
2021/11/24 12:42:58;;;;;;;31.00;16.00;;;2.00;99.90;;;;;;4982734;28;20451;-58
2021/11/24 12:45:24;;;;;;;37.07;18.23;;;2.00;99.90;;;;;;4991364;28;20478;-60
2021/11/24 12:48:04;;;;;;;31.90;14.80;;;2.00;99.90;;;;;;4983696;28;20468;-58